Time,TemperatureF,DewpointF,PressureIn,WindDirection,WindDirectionDegrees,WindSpeedMPH,WindSpeedGustMPH,Humidity,HourlyPrecipIn,Conditions,Clouds,dailyrainin,SoftwareType,DateUTC
2013-11-28 00:04:00,17.5,14.3,30.26,NNE,24,0.0,0.0,87,0.00,,,0.00,VWS V12.07,2013-11-28 06:04:00,
2013-11-28 00:09:00,17.5,14.3,30.26,NNE,24,0.0,0.0,87,0.00,,,0.00,VWS V12.07,2013-11-28 06:09:00,
2013-11-28 00:14:00,17.5,14.3,30.26,NNE,24,0.0,0.0,87,0.00,,,0.00,VWS V12.07,2013-11-28 06:14:00,
2013-11-28 00:24:00,17.4,14.2,30.25,NNE,24,0.0,0.0,87,0.00,,,0.00,VWS V12.07,2013-11-28 06:24:00,
2013-11-28 00:29:00,17.3,14.1,30.25,NNE,24,0.0,0.0,87,0.00,,,0.00,VWS V12.07,2013-11-28 06:29:00,
2013-11-28 00:39:00,17.3,14.1,30.25,NNE,24,0.0,0.0,87,0.00,,,0.00,VWS V12.07,2013-11-28 06:39:00,
2013-11-28 00:44:00,17.2,14.0,30.24,NNE,24,0.0,0.0,87,0.00,,,0.00,VWS V12.07,2013-11-28 06:44:00,
2013-11-28 00:49:00,17.1,13.9,30.24,NNE,24,0.0,0.0,87,0.00,,,0.00,VWS V12.07,2013-11-28 06:49:00,
2013-11-28 00:54:00,17.1,13.9,30.24,NNE,24,0.0,0.0,87,0.00,,,0.00,VWS V12.07,2013-11-28 06:54:00,
2013-11-28 00:59:00,17.0,13.8,30.24,NNE,24,0.0,0.0,87,0.00,,,0.00,VWS V12.07,2013-11-28 06:59:00,
2013-11-28 01:04:00,16.8,13.4,30.24,NNE,24,0.0,0.0,86,0.00,,,0.00,VWS V12.07,2013-11-28 07:04:00,
2013-11-28 01:09:00,16.6,13.4,30.24,NNE,24,0.0,0.0,87,0.00,,,0.00,VWS V12.07,2013-11-28 07:09:00,
2013-11-28 01:14:00,16.5,13.3,30.24,NNE,24,0.0,0.0,87,0.00,,,0.00,VWS V12.07,2013-11-28 07:14:00,
2013-11-28 01:19:00,16.5,13.3,30.24,NNE,24,0.0,0.0,87,0.00,,,0.00,VWS V12.07,2013-11-28 07:19:00,
2013-11-28 01:24:00,16.5,13.3,30.23,NNE,24,0.0,0.0,87,0.00,,,0.00,VWS V12.07,2013-11-28 07:24:00,
2013-11-28 01:29:00,16.6,13.7,30.23,NNE,24,0.0,0.0,88,0.00,,,0.00,VWS V12.07,2013-11-28 07:29:00,
2013-11-28 01:39:00,16.7,13.8,30.23,NNE,24,0.0,0.0,88,0.00,,,0.00,VWS V12.07,2013-11-28 07:39:00,
2013-11-28 01:44:00,16.7,13.8,30.23,NNE,24,0.0,0.0,88,0.00,,,0.00,VWS V12.07,2013-11-28 07:44:00,
2013-11-28 01:49:00,16.7,13.8,30.24,NNE,24,0.0,0.0,88,0.00,,,0.00,VWS V12.07,2013-11-28 07:49:00,
2013-11-28 01:54:00,16.8,13.9,30.24,NNE,24,0.0,0.0,88,0.00,,,0.00,VWS V12.07,2013-11-28 07:54:00,
2013-11-28 01:59:00,16.8,13.9,30.24,NNE,24,0.0,0.0,88,0.00,,,0.00,VWS V12.07,2013-11-28 07:59:00,
2013-11-28 02:04:00,16.8,13.9,30.24,NNE,24,0.0,0.0,88,0.00,,,0.00,VWS V12.07,2013-11-28 08:04:00,
2013-11-28 02:09:00,16.8,13.9,30.23,NNE,24,0.0,0.0,88,0.00,,,0.00,VWS V12.07,2013-11-28 08:09:00,
2013-11-28 02:14:00,16.8,13.9,30.23,NNE,24,0.0,0.0,88,0.00,,,0.00,VWS V12.07,2013-11-28 08:14:00,
2013-11-28 02:19:00,16.8,13.9,30.23,NNE,24,0.0,0.0,88,0.00,,,0.00,VWS V12.07,2013-11-28 08:19:00,
2013-11-28 02:24:00,16.8,13.9,30.23,NNE,24,0.0,0.0,88,0.00,,,0.00,VWS V12.07,2013-11-28 08:24:00,
2013-11-28 02:29:00,16.8,13.9,30.23,NNE,24,0.0,0.0,88,0.00,,,0.00,VWS V12.07,2013-11-28 08:29:00,
2013-11-28 02:34:00,16.9,14.0,30.23,NNE,24,0.0,0.0,88,0.00,,,0.00,VWS V12.07,2013-11-28 08:34:00,
2013-11-28 02:39:00,16.9,14.0,30.23,NNE,24,0.0,0.0,88,0.00,,,0.00,VWS V12.07,2013-11-28 08:39:00,
2013-11-28 02:49:00,16.9,14.0,30.23,NNE,24,0.0,0.0,88,0.00,,,0.00,VWS V12.07,2013-11-28 08:49:00,
2013-11-28 02:54:00,16.9,14.0,30.23,NNE,24,0.0,0.0,88,0.00,,,0.00,VWS V12.07,2013-11-28 08:54:00,
2013-11-28 02:59:00,16.9,14.0,30.23,NNE,24,0.0,0.0,88,0.00,,,0.00,VWS V12.07,2013-11-28 08:59:00,
2013-11-28 03:04:00,16.9,14.0,30.23,NNE,24,0.0,0.0,88,0.00,,,0.00,VWS V12.07,2013-11-28 09:04:00,
2013-11-28 03:09:00,16.9,14.0,30.23,NNE,24,0.0,0.0,88,0.00,,,0.00,VWS V12.07,2013-11-28 09:09:00,
2013-11-28 03:14:00,16.8,13.9,30.23,NNE,24,0.0,0.0,88,0.00,,,0.00,VWS V12.07,2013-11-28 09:14:00,
2013-11-28 03:19:00,16.8,13.9,30.23,NNE,24,0.0,0.0,88,0.00,,,0.00,VWS V12.07,2013-11-28 09:19:00,
2013-11-28 03:24:00,16.8,13.9,30.23,NNE,24,0.0,0.0,88,0.00,,,0.00,VWS V12.07,2013-11-28 09:24:00,
2013-11-28 03:29:00,16.8,13.9,30.23,NNE,24,0.0,0.0,88,0.00,,,0.00,VWS V12.07,2013-11-28 09:29:00,
2013-11-28 03:34:00,16.8,13.9,30.22,NNE,24,0.0,0.0,88,0.00,,,0.00,VWS V12.07,2013-11-28 09:34:00,
2013-11-28 03:44:00,16.8,13.9,30.22,NNE,24,0.0,0.0,88,0.00,,,0.00,VWS V12.07,2013-11-28 09:44:00,
2013-11-28 03:54:00,16.8,13.9,30.22,NNE,24,0.0,0.0,88,0.00,,,0.00,VWS V12.07,2013-11-28 09:54:00,
2013-11-28 03:59:00,16.8,13.9,30.22,NNE,24,0.0,0.0,88,0.00,,,0.00,VWS V12.07,2013-11-28 09:59:00,
2013-11-28 04:09:00,16.8,13.9,30.22,NNE,24,0.0,0.0,88,0.00,,,0.00,VWS V12.07,2013-11-28 10:09:00,
2013-11-28 04:14:00,16.8,13.9,30.22,NNE,24,0.0,0.0,88,0.00,,,0.00,VWS V12.07,2013-11-28 10:14:00,
2013-11-28 04:24:00,16.8,13.9,30.23,NNE,24,0.0,0.0,88,0.00,,,0.00,VWS V12.07,2013-11-28 10:24:00,
2013-11-28 04:29:00,16.8,13.9,30.23,NNE,24,0.0,0.0,88,0.00,,,0.00,VWS V12.07,2013-11-28 10:29:00,
2013-11-28 04:34:00,16.8,13.9,30.23,NNE,24,0.0,0.0,88,0.00,,,0.00,VWS V12.07,2013-11-28 10:34:00,
2013-11-28 04:39:00,16.8,13.9,30.23,NNE,24,0.0,0.0,88,0.00,,,0.00,VWS V12.07,2013-11-28 10:39:00,
2013-11-28 04:44:00,16.8,13.9,30.23,NNE,24,0.0,0.0,88,0.00,,,0.00,VWS V12.07,2013-11-28 10:44:00,
2013-11-28 04:49:00,16.8,13.9,30.23,NNE,24,0.0,0.0,88,0.00,,,0.00,VWS V12.07,2013-11-28 10:49:00,
2013-11-28 04:54:00,16.8,13.9,30.23,NNE,24,0.0,0.0,88,0.00,,,0.00,VWS V12.07,2013-11-28 10:54:00,
2013-11-28 04:59:00,16.8,13.9,30.23,NNE,24,0.0,0.0,88,0.00,,,0.00,VWS V12.07,2013-11-28 10:59:00,
2013-11-28 05:04:00,16.8,13.9,30.23,NNE,24,0.0,0.0,88,0.00,,,0.00,VWS V12.07,2013-11-28 11:04:00,
2013-11-28 05:09:00,16.7,13.8,30.23,NNE,24,0.0,0.0,88,0.00,,,0.00,VWS V12.07,2013-11-28 11:09:00,
2013-11-28 05:14:00,16.7,13.8,30.23,NNE,24,0.0,0.0,88,0.00,,,0.00,VWS V12.07,2013-11-28 11:14:00,
2013-11-28 05:19:00,16.7,13.8,30.23,NNE,24,0.0,0.0,88,0.00,,,0.00,VWS V12.07,2013-11-28 11:19:00,
2013-11-28 05:24:00,16.6,13.7,30.24,NNE,24,0.0,0.0,88,0.00,,,0.00,VWS V12.07,2013-11-28 11:24:00,
2013-11-28 05:29:00,16.6,13.7,30.24,NNE,24,0.0,0.0,88,0.00,,,0.00,VWS V12.07,2013-11-28 11:29:00,
2013-11-28 05:39:00,16.6,13.7,30.24,NNE,24,0.0,0.0,88,0.00,,,0.00,VWS V12.07,2013-11-28 11:39:00,
2013-11-28 05:44:00,16.6,13.7,30.24,NNE,24,0.0,0.0,88,0.00,,,0.00,VWS V12.07,2013-11-28 11:44:00,
2013-11-28 05:49:00,16.6,13.7,30.24,NNE,24,0.0,0.0,88,0.00,,,0.00,VWS V12.07,2013-11-28 11:49:00,
2013-11-28 05:54:00,16.6,13.7,30.24,NNE,24,0.0,0.0,88,0.00,,,0.00,VWS V12.07,2013-11-28 11:54:00,
2013-11-28 05:59:00,16.6,13.7,30.24,NNE,24,0.0,0.0,88,0.00,,,0.00,VWS V12.07,2013-11-28 11:59:00,
2013-11-28 06:04:00,16.5,13.6,30.24,NNE,24,0.0,0.0,88,0.00,,,0.00,VWS V12.07,2013-11-28 12:04:00,
2013-11-28 06:14:00,16.6,13.7,30.25,NNE,24,0.0,0.0,88,0.00,,,0.00,VWS V12.07,2013-11-28 12:14:00,
2013-11-28 06:19:00,16.6,13.7,30.25,NNE,24,0.0,0.0,88,0.00,,,0.00,VWS V12.07,2013-11-28 12:19:00,
2013-11-28 06:24:00,16.6,13.7,30.25,NNE,24,0.0,0.0,88,0.00,,,0.00,VWS V12.07,2013-11-28 12:24:00,
2013-11-28 06:29:00,16.6,13.7,30.25,NNE,24,0.0,0.0,88,0.00,,,0.00,VWS V12.07,2013-11-28 12:29:00,
2013-11-28 06:39:00,16.6,13.7,30.25,NNE,24,0.0,0.0,88,0.00,,,0.00,VWS V12.07,2013-11-28 12:39:00,
2013-11-28 06:44:00,16.6,13.7,30.25,NNE,24,0.0,0.0,88,0.00,,,0.00,VWS V12.07,2013-11-28 12:44:00,
2013-11-28 06:49:00,16.5,13.6,30.25,NNE,24,0.0,0.0,88,0.00,,,0.00,VWS V12.07,2013-11-28 12:49:00,
2013-11-28 06:54:00,16.5,13.6,30.25,NNE,24,0.0,0.0,88,0.00,,,0.00,VWS V12.07,2013-11-28 12:54:00,
2013-11-28 07:04:00,16.5,13.6,30.25,NNE,24,0.0,0.0,88,0.00,,,0.00,VWS V12.07,2013-11-28 13:04:00,
2013-11-28 07:09:00,16.5,13.6,30.26,NNE,24,0.0,0.0,88,0.00,,,0.00,VWS V12.07,2013-11-28 13:09:00,
2013-11-28 07:14:00,16.5,13.6,30.26,NNE,24,0.0,0.0,88,0.00,,,0.00,VWS V12.07,2013-11-28 13:14:00,
2013-11-28 07:19:00,16.6,13.7,30.26,NNE,24,0.0,0.0,88,0.00,,,0.00,VWS V12.07,2013-11-28 13:19:00,
2013-11-28 07:24:00,16.6,13.7,30.26,NNE,24,0.0,0.0,88,0.00,,,0.00,VWS V12.07,2013-11-28 13:24:00,
2013-11-28 07:29:00,16.6,13.7,30.26,NNE,24,0.0,0.0,88,0.00,,,0.00,VWS V12.07,2013-11-28 13:29:00,
2013-11-28 07:39:00,16.7,13.8,30.26,NNE,24,0.0,0.0,88,0.00,,,0.00,VWS V12.07,2013-11-28 13:39:00,
2013-11-28 07:49:00,16.8,13.9,30.26,NNE,24,0.0,0.0,88,0.00,,,0.00,VWS V12.07,2013-11-28 13:49:00,
2013-11-28 07:54:00,16.8,13.9,30.26,NNE,24,0.0,0.0,88,0.00,,,0.00,VWS V12.07,2013-11-28 13:54:00,
2013-11-28 07:59:00,16.9,14.0,30.26,NNE,24,0.0,0.0,88,0.00,,,0.00,VWS V12.07,2013-11-28 13:59:00,
2013-11-28 08:09:00,17.1,14.2,30.27,NNE,24,0.0,0.0,88,0.00,,,0.00,VWS V12.07,2013-11-28 14:09:00,
2013-11-28 08:14:00,17.2,14.3,30.27,NNE,24,0.0,0.0,88,0.00,,,0.00,VWS V12.07,2013-11-28 14:14:00,
2013-11-28 08:19:00,17.3,14.4,30.27,NNE,24,0.0,0.0,88,0.00,,,0.00,VWS V12.07,2013-11-28 14:19:00,
2013-11-28 08:24:00,17.5,14.6,30.27,NNE,24,0.0,0.0,88,0.00,,,0.00,VWS V12.07,2013-11-28 14:24:00,
2013-11-28 08:29:00,17.6,14.7,30.27,NNE,24,0.0,0.0,88,0.00,,,0.00,VWS V12.07,2013-11-28 14:29:00,
2013-11-28 08:34:00,17.8,15.1,30.27,NNE,24,0.0,0.0,89,0.00,,,0.00,VWS V12.07,2013-11-28 14:34:00,
2013-11-28 08:39:00,18.0,15.1,30.27,NNE,24,0.0,0.0,88,0.00,,,0.00,VWS V12.07,2013-11-28 14:39:00,
2013-11-28 08:49:00,18.4,15.4,30.28,NNE,24,0.0,0.0,88,0.00,,,0.00,VWS V12.07,2013-11-28 14:49:00,
2013-11-28 08:54:00,18.6,15.6,30.28,NNE,24,0.0,0.0,88,0.00,,,0.00,VWS V12.07,2013-11-28 14:54:00,
2013-11-28 08:59:00,18.6,15.4,30.28,NNE,24,0.0,0.0,87,0.00,,,0.00,VWS V12.07,2013-11-28 14:59:00,
2013-11-28 09:09:00,18.9,15.7,30.28,NNE,24,0.0,0.0,87,0.00,,,0.00,VWS V12.07,2013-11-28 15:09:00,
2013-11-28 09:19:00,19.1,15.6,30.28,NNE,24,0.0,0.0,86,0.00,,,0.00,VWS V12.07,2013-11-28 15:19:00,
2013-11-28 09:29:00,19.3,15.8,30.28,NNE,24,0.0,1.0,86,0.00,,,0.00,VWS V12.07,2013-11-28 15:29:00,
2013-11-28 09:34:00,19.5,15.7,30.28,NNE,24,0.0,1.0,85,0.00,,,0.00,VWS V12.07,2013-11-28 15:34:00,
2013-11-28 09:39:00,19.7,15.9,30.29,NW,313,0.0,2.0,85,0.00,,,0.00,VWS V12.07,2013-11-28 15:39:00,
2013-11-28 09:44:00,19.7,15.9,30.29,NW,313,0.0,2.0,85,0.00,,,0.00,VWS V12.07,2013-11-28 15:44:00,
2013-11-28 09:49:00,19.8,15.8,30.29,WNW,303,0.0,2.0,84,0.00,,,0.00,VWS V12.07,2013-11-28 15:49:00,
2013-11-28 09:54:00,19.8,15.5,30.29,WNW,303,0.0,2.0,83,0.00,,,0.00,VWS V12.07,2013-11-28 15:54:00,
2013-11-28 10:04:00,19.9,15.6,30.29,WNW,302,0.0,1.0,83,0.00,,,0.00,VWS V12.07,2013-11-28 16:04:00,
2013-11-28 10:09:00,19.9,15.3,30.29,West,271,0.0,2.0,82,0.00,,,0.00,VWS V12.07,2013-11-28 16:09:00,
2013-11-28 10:14:00,20.1,15.8,30.29,West,275,0.0,2.0,83,0.00,,,0.00,VWS V12.07,2013-11-28 16:14:00,
2013-11-28 10:24:00,20.4,15.8,30.29,North,350,0.0,3.0,82,0.00,,,0.00,VWS V12.07,2013-11-28 16:24:00,
2013-11-28 10:29:00,20.6,15.7,30.29,WNW,284,0.0,3.0,81,0.00,,,0.00,VWS V12.07,2013-11-28 16:29:00,
2013-11-28 10:34:00,20.7,15.8,30.29,West,265,0.0,1.0,81,0.00,,,0.00,VWS V12.07,2013-11-28 16:34:00,
2013-11-28 10:39:00,20.9,15.4,30.29,West,267,0.0,1.0,79,0.00,,,0.00,VWS V12.07,2013-11-28 16:39:00,
2013-11-28 10:44:00,20.8,15.3,30.30,NNW,343,0.0,4.0,79,0.00,,,0.00,VWS V12.07,2013-11-28 16:44:00,
2013-11-28 10:49:00,20.7,14.6,30.29,NNW,333,0.0,4.0,77,0.00,,,0.00,VWS V12.07,2013-11-28 16:49:00,
2013-11-28 10:54:00,20.7,14.9,30.29,NNW,331,2.0,4.0,78,0.00,,,0.00,VWS V12.07,2013-11-28 16:54:00,
2013-11-28 11:04:00,20.8,14.7,30.29,WSW,252,0.0,2.0,77,0.00,,,0.00,VWS V12.07,2013-11-28 17:04:00,
2013-11-28 11:14:00,20.8,14.7,30.30,WNW,290,0.0,3.0,77,0.00,,,0.00,VWS V12.07,2013-11-28 17:14:00,
2013-11-28 11:19:00,21.1,15.0,30.30,WNW,290,0.0,3.0,77,0.00,,,0.00,VWS V12.07,2013-11-28 17:19:00,
2013-11-28 11:24:00,21.2,15.1,30.30,WSW,242,0.0,6.0,77,0.00,,,0.00,VWS V12.07,2013-11-28 17:24:00,
2013-11-28 11:29:00,21.3,15.5,30.30,West,265,0.0,6.0,78,0.00,,,0.00,VWS V12.07,2013-11-28 17:29:00,
2013-11-28 11:34:00,21.2,14.5,30.30,West,273,4.0,4.0,75,0.00,,,0.00,VWS V12.07,2013-11-28 17:34:00,
2013-11-28 11:39:00,21.1,14.1,30.30,WNW,302,0.0,4.0,74,0.00,,,0.00,VWS V12.07,2013-11-28 17:39:00,
2013-11-28 11:49:00,21.7,15.0,30.30,NNE,21,0.0,4.0,75,0.00,,,0.00,VWS V12.07,2013-11-28 17:49:00,
2013-11-28 11:54:00,21.9,15.2,30.30,ESE,123,0.0,4.0,75,0.00,,,0.00,VWS V12.07,2013-11-28 17:54:00,
2013-11-28 11:59:00,21.7,14.7,30.31,WNW,292,0.0,4.0,74,0.00,,,0.00,VWS V12.07,2013-11-28 17:59:00,
2013-11-28 12:04:00,21.6,14.6,30.31,SSW,198,0.0,2.0,74,0.00,,,0.00,VWS V12.07,2013-11-28 18:04:00,
2013-11-28 12:14:00,21.4,14.7,30.31,NE,45,0.0,3.0,75,0.00,,,0.00,VWS V12.07,2013-11-28 18:14:00,
2013-11-28 12:19:00,21.4,14.7,30.31,NE,48,1.0,3.0,75,0.00,,,0.00,VWS V12.07,2013-11-28 18:19:00,
2013-11-28 12:24:00,21.4,14.4,30.31,North,355,0.0,3.0,74,0.00,,,0.00,VWS V12.07,2013-11-28 18:24:00,
2013-11-28 12:29:00,21.3,14.3,30.32,NNW,333,0.0,3.0,74,0.00,,,0.00,VWS V12.07,2013-11-28 18:29:00,
2013-11-28 12:34:00,21.5,14.5,30.32,WNW,286,0.0,4.0,74,0.00,,,0.00,VWS V12.07,2013-11-28 18:34:00,
2013-11-28 12:39:00,21.6,14.3,30.32,WNW,287,0.0,4.0,73,0.00,,,0.00,VWS V12.07,2013-11-28 18:39:00,
2013-11-28 12:44:00,21.6,14.3,30.32,WNW,286,0.0,4.0,73,0.00,,,0.00,VWS V12.07,2013-11-28 18:44:00,
2013-11-28 12:49:00,21.7,14.4,30.32,WNW,282,0.0,4.0,73,0.00,,,0.00,VWS V12.07,2013-11-28 18:49:00,
2013-11-28 12:54:00,21.6,14.0,30.32,West,281,0.0,4.0,72,0.00,,,0.00,VWS V12.07,2013-11-28 18:54:00,
2013-11-28 12:59:00,21.6,14.0,30.32,WNW,283,0.0,4.0,72,0.00,,,0.00,VWS V12.07,2013-11-28 18:59:00,
2013-11-28 13:09:00,21.8,14.5,30.32,ENE,67,2.0,2.0,73,0.00,,,0.00,VWS V12.07,2013-11-28 19:09:00,
2013-11-28 13:14:00,21.8,14.2,30.32,NE,47,0.0,4.0,72,0.00,,,0.00,VWS V12.07,2013-11-28 19:14:00,
2013-11-28 13:19:00,21.8,13.9,30.33,NE,40,0.0,4.0,71,0.00,,,0.00,VWS V12.07,2013-11-28 19:19:00,
2013-11-28 13:24:00,21.8,13.9,30.33,NNW,333,0.0,4.0,71,0.00,,,0.00,VWS V12.07,2013-11-28 19:24:00,
2013-11-28 13:29:00,22.0,14.4,30.33,WNW,288,0.0,4.0,72,0.00,,,0.00,VWS V12.07,2013-11-28 19:29:00,
2013-11-28 13:34:00,22.1,14.5,30.33,WNW,283,0.0,0.0,72,0.00,,,0.00,VWS V12.07,2013-11-28 19:34:00,
2013-11-28 13:44:00,22.4,14.8,30.34,NW,317,0.0,3.0,72,0.00,,,0.00,VWS V12.07,2013-11-28 19:44:00,
2013-11-28 13:54:00,22.3,15.0,30.34,West,279,2.0,4.0,73,0.00,,,0.00,VWS V12.07,2013-11-28 19:54:00,
2013-11-28 14:04:00,22.2,14.6,30.34,West,276,0.0,3.0,72,0.00,,,0.00,VWS V12.07,2013-11-28 20:04:00,
2013-11-28 14:09:00,22.1,14.5,30.35,West,273,0.0,4.0,72,0.00,,,0.00,VWS V12.07,2013-11-28 20:09:00,
2013-11-28 14:14:00,22.1,14.5,30.35,WNW,284,1.0,4.0,72,0.00,,,0.00,VWS V12.07,2013-11-28 20:14:00,
2013-11-28 14:19:00,21.9,14.3,30.35,NW,315,3.0,4.0,72,0.00,,,0.00,VWS V12.07,2013-11-28 20:19:00,
2013-11-28 14:24:00,21.8,14.2,30.36,WSW,241,0.0,4.0,72,0.00,,,0.00,VWS V12.07,2013-11-28 20:24:00,
2013-11-28 14:34:00,21.6,14.0,30.36,WSW,252,0.0,4.0,72,0.00,,,0.00,VWS V12.07,2013-11-28 20:34:00,
2013-11-28 14:39:00,21.6,14.3,30.36,North,355,2.0,4.0,73,0.00,,,0.00,VWS V12.07,2013-11-28 20:39:00,
2013-11-28 14:44:00,21.5,14.2,30.37,NNE,18,0.0,4.0,73,0.00,,,0.00,VWS V12.07,2013-11-28 20:44:00,
2013-11-28 14:49:00,21.4,14.1,30.37,NE,40,1.0,4.0,73,0.00,,,0.00,VWS V12.07,2013-11-28 20:49:00,
2013-11-28 14:54:00,21.3,14.0,30.37,NNW,340,2.0,4.0,73,0.00,,,0.00,VWS V12.07,2013-11-28 20:54:00,
2013-11-28 14:59:00,21.2,14.2,30.37,NNE,18,0.0,4.0,74,0.00,,,0.00,VWS V12.07,2013-11-28 20:59:00,
2013-11-28 15:04:00,21.2,14.2,30.38,NE,49,0.0,1.0,74,0.00,,,0.00,VWS V12.07,2013-11-28 21:04:00,
2013-11-28 15:14:00,21.1,14.1,30.38,NE,49,0.0,1.0,74,0.00,,,0.00,VWS V12.07,2013-11-28 21:14:00,
2013-11-28 15:19:00,20.9,13.6,30.38,NNE,33,0.0,1.0,73,0.00,,,0.00,VWS V12.07,2013-11-28 21:19:00,
2013-11-28 15:24:00,20.7,13.4,30.39,NNE,33,0.0,1.0,73,0.00,,,0.00,VWS V12.07,2013-11-28 21:24:00,
2013-11-28 15:29:00,20.6,13.3,30.39,NNE,33,0.0,1.0,73,0.00,,,0.00,VWS V12.07,2013-11-28 21:29:00,
2013-11-28 15:39:00,20.3,13.7,30.39,NNE,33,0.0,0.0,75,0.00,,,0.00,VWS V12.07,2013-11-28 21:39:00,
2013-11-28 15:49:00,20.2,13.2,30.40,NNE,33,0.0,0.0,74,0.00,,,0.00,VWS V12.07,2013-11-28 21:49:00,
2013-11-28 15:54:00,20.1,13.2,30.40,NNE,33,0.0,0.0,74,0.00,,,0.00,VWS V12.07,2013-11-28 21:54:00,
2013-11-28 15:59:00,20.0,13.4,30.40,NNE,33,0.0,0.0,75,0.00,,,0.00,VWS V12.07,2013-11-28 21:59:00,
2013-11-28 16:04:00,19.7,13.1,30.40,NNE,33,0.0,0.0,75,0.00,,,0.00,VWS V12.07,2013-11-28 22:04:00,
2013-11-28 16:09:00,19.6,13.0,30.41,NNE,33,0.0,0.0,75,0.00,,,0.00,VWS V12.07,2013-11-28 22:09:00,
2013-11-28 16:14:00,19.3,13.0,30.41,NNE,33,0.0,0.0,76,0.00,,,0.00,VWS V12.07,2013-11-28 22:14:00,
2013-11-28 16:19:00,19.0,12.7,30.41,NNE,33,0.0,0.0,76,0.00,,,0.00,VWS V12.07,2013-11-28 22:19:00,
2013-11-28 16:24:00,18.8,12.5,30.42,NNE,33,0.0,0.0,76,0.00,,,0.00,VWS V12.07,2013-11-28 22:24:00,
2013-11-28 16:29:00,18.5,12.8,30.42,NNE,33,0.0,0.0,78,0.00,,,0.00,VWS V12.07,2013-11-28 22:29:00,
2013-11-28 16:39:00,18.1,12.4,30.43,NNE,33,0.0,0.0,78,0.00,,,0.00,VWS V12.07,2013-11-28 22:39:00,
2013-11-28 16:44:00,18.0,12.6,30.43,NNE,33,0.0,0.0,79,0.00,,,0.00,VWS V12.07,2013-11-28 22:44:00,
2013-11-28 16:49:00,17.8,12.4,30.43,NNE,33,0.0,0.0,79,0.00,,,0.00,VWS V12.07,2013-11-28 22:49:00,
2013-11-28 16:59:00,17.2,11.8,30.44,NNE,33,0.0,0.0,79,0.00,,,0.00,VWS V12.07,2013-11-28 22:59:00,
2013-11-28 17:04:00,16.8,11.7,30.44,NNE,33,0.0,0.0,80,0.00,,,0.00,VWS V12.07,2013-11-28 23:04:00,
2013-11-28 17:14:00,16.3,11.2,30.44,NNE,33,0.0,0.0,80,0.00,,,0.00,VWS V12.07,2013-11-28 23:14:00,
2013-11-28 17:19:00,16.0,10.9,30.44,NNE,33,0.0,0.0,80,0.00,,,0.00,VWS V12.07,2013-11-28 23:19:00,
2013-11-28 17:24:00,15.7,10.9,30.45,NNE,33,0.0,0.0,81,0.00,,,0.00,VWS V12.07,2013-11-28 23:24:00,
2013-11-28 17:34:00,14.9,10.1,30.45,NNE,33,0.0,0.0,81,0.00,,,0.00,VWS V12.07,2013-11-28 23:34:00,
2013-11-28 17:39:00,14.7,10.2,30.45,NNE,33,0.0,0.0,82,0.00,,,0.00,VWS V12.07,2013-11-28 23:39:00,
2013-11-28 17:44:00,14.5,10.0,30.45,NNE,33,0.0,0.0,82,0.00,,,0.00,VWS V12.07,2013-11-28 23:44:00,
2013-11-28 17:54:00,14.3,10.1,30.46,NNE,33,0.0,0.0,83,0.00,,,0.00,VWS V12.07,2013-11-28 23:54:00,
2013-11-28 17:59:00,14.2,10.0,30.46,NNE,33,0.0,0.0,83,0.00,,,0.00,VWS V12.07,2013-11-28 23:59:00,
2013-11-28 18:04:00,14.0,9.8,30.47,NNE,33,0.0,0.0,83,0.00,,,0.00,VWS V12.07,2013-11-29 00:04:00,
2013-11-28 18:09:00,13.7,9.5,30.47,NNE,33,0.0,0.0,83,0.00,,,0.00,VWS V12.07,2013-11-29 00:09:00,
2013-11-28 18:14:00,13.5,9.3,30.47,NNE,33,0.0,0.0,83,0.00,,,0.00,VWS V12.07,2013-11-29 00:14:00,
2013-11-28 18:19:00,13.4,9.5,30.47,NNE,33,0.0,0.0,84,0.00,,,0.00,VWS V12.07,2013-11-29 00:19:00,
2013-11-28 18:24:00,13.2,9.3,30.48,NNE,33,0.0,0.0,84,0.00,,,0.00,VWS V12.07,2013-11-29 00:24:00,
2013-11-28 18:29:00,13.2,9.6,30.48,NNE,33,0.0,0.0,85,0.00,,,0.00,VWS V12.07,2013-11-29 00:29:00,
2013-11-28 18:34:00,13.1,9.4,30.48,NNE,33,0.0,0.0,85,0.00,,,0.00,VWS V12.07,2013-11-29 00:34:00,
2013-11-28 18:44:00,12.8,9.1,30.49,NNE,33,0.0,0.0,85,0.00,,,0.00,VWS V12.07,2013-11-29 00:44:00,
2013-11-28 18:49:00,12.6,9.0,30.49,NNE,33,0.0,0.0,85,0.00,,,0.00,VWS V12.07,2013-11-29 00:49:00,
2013-11-28 18:54:00,12.5,8.9,30.49,NNE,33,0.0,0.0,85,0.00,,,0.00,VWS V12.07,2013-11-29 00:54:00,
2013-11-28 18:59:00,12.6,9.2,30.49,NNE,33,0.0,0.0,86,0.00,,,0.00,VWS V12.07,2013-11-29 00:59:00,
2013-11-28 19:04:00,12.5,9.1,30.50,NNE,33,0.0,0.0,86,0.00,,,0.00,VWS V12.07,2013-11-29 01:04:00,
2013-11-28 19:14:00,12.1,8.7,30.50,NNE,33,0.0,0.0,86,0.00,,,0.00,VWS V12.07,2013-11-29 01:14:00,
2013-11-28 19:24:00,12.0,8.6,30.51,NNE,33,0.0,0.0,86,0.00,,,0.00,VWS V12.07,2013-11-29 01:24:00,
2013-11-28 19:34:00,12.0,8.9,30.51,NNE,33,0.0,0.0,87,0.00,,,0.00,VWS V12.07,2013-11-29 01:34:00,
2013-11-28 19:39:00,12.1,9.0,30.51,NNE,33,0.0,0.0,87,0.00,,,0.00,VWS V12.07,2013-11-29 01:39:00,
2013-11-28 19:44:00,12.1,9.0,30.51,NNE,33,0.0,0.0,87,0.00,,,0.00,VWS V12.07,2013-11-29 01:44:00,
2013-11-28 19:49:00,11.9,8.8,30.51,NNE,33,0.0,0.0,87,0.00,,,0.00,VWS V12.07,2013-11-29 01:49:00,
2013-11-28 19:59:00,11.5,8.1,30.51,NNE,33,0.0,0.0,86,0.00,,,0.00,VWS V12.07,2013-11-29 01:59:00,
2013-11-28 20:09:00,11.0,7.6,30.51,NNE,33,0.0,0.0,86,0.00,,,0.00,VWS V12.07,2013-11-29 02:09:00,
2013-11-28 20:14:00,11.0,7.9,30.51,NNE,33,0.0,0.0,87,0.00,,,0.00,VWS V12.07,2013-11-29 02:14:00,
2013-11-28 20:19:00,10.8,7.7,30.51,NNE,33,0.0,0.0,87,0.00,,,0.00,VWS V12.07,2013-11-29 02:19:00,
2013-11-28 20:24:00,10.6,7.2,30.51,NNE,33,0.0,0.0,86,0.00,,,0.00,VWS V12.07,2013-11-29 02:24:00,
2013-11-28 20:29:00,10.4,7.3,30.51,NNE,33,0.0,0.0,87,0.00,,,0.00,VWS V12.07,2013-11-29 02:29:00,
2013-11-28 20:39:00,10.1,7.0,30.52,NNE,33,0.0,0.0,87,0.00,,,0.00,VWS V12.07,2013-11-29 02:39:00,
2013-11-28 20:44:00,10.0,6.9,30.52,NNE,33,0.0,0.0,87,0.00,,,0.00,VWS V12.07,2013-11-29 02:44:00,
2013-11-28 20:49:00,9.9,6.8,30.52,NNE,32,0.0,0.0,87,0.00,,,0.00,VWS V12.07,2013-11-29 02:49:00,
2013-11-28 20:54:00,9.9,6.8,30.52,NNE,33,0.0,0.0,87,0.00,,,0.00,VWS V12.07,2013-11-29 02:54:00,
2013-11-28 20:59:00,9.9,7.1,30.52,NNE,33,0.0,0.0,88,0.00,,,0.00,VWS V12.07,2013-11-29 02:59:00,
2013-11-28 21:04:00,10.1,7.3,30.52,NNE,33,0.0,0.0,88,0.00,,,0.00,VWS V12.07,2013-11-29 03:04:00,
2013-11-28 21:09:00,10.0,7.2,30.53,NNE,33,0.0,0.0,88,0.00,,,0.00,VWS V12.07,2013-11-29 03:09:00,
2013-11-28 21:19:00,9.5,6.4,30.53,NNE,33,0.0,0.0,87,0.00,,,0.00,VWS V12.07,2013-11-29 03:19:00,
2013-11-28 21:24:00,9.4,6.3,30.53,NNE,33,0.0,0.0,87,0.00,,,0.00,VWS V12.07,2013-11-29 03:24:00,
2013-11-28 21:29:00,9.4,6.3,30.53,NNE,33,0.0,0.0,87,0.00,,,0.00,VWS V12.07,2013-11-29 03:29:00,
2013-11-28 21:34:00,9.4,6.3,30.53,NNE,32,0.0,0.0,87,0.00,,,0.00,VWS V12.07,2013-11-29 03:34:00,
2013-11-28 21:39:00,9.4,6.3,30.54,NNE,33,0.0,0.0,87,0.00,,,0.00,VWS V12.07,2013-11-29 03:39:00,
2013-11-28 21:44:00,9.5,6.4,30.54,NNE,32,0.0,0.0,87,0.00,,,0.00,VWS V12.07,2013-11-29 03:44:00,
2013-11-28 21:49:00,9.7,6.6,30.54,NNE,33,0.0,0.0,87,0.00,,,0.00,VWS V12.07,2013-11-29 03:49:00,
2013-11-28 21:54:00,9.9,6.8,30.54,NNE,33,0.0,0.0,87,0.00,,,0.00,VWS V12.07,2013-11-29 03:54:00,
2013-11-28 21:59:00,9.9,6.8,30.54,NNE,33,0.0,0.0,87,0.00,,,0.00,VWS V12.07,2013-11-29 03:59:00,
2013-11-28 22:09:00,10.1,7.0,30.54,NNE,32,0.0,0.0,87,0.00,,,0.00,VWS V12.07,2013-11-29 04:09:00,
2013-11-28 22:14:00,10.1,7.0,30.54,NNE,33,0.0,0.0,87,0.00,,,0.00,VWS V12.07,2013-11-29 04:14:00,
2013-11-28 22:19:00,10.0,6.9,30.55,NNE,33,0.0,0.0,87,0.00,,,0.00,VWS V12.07,2013-11-29 04:19:00,
2013-11-28 22:29:00,9.9,6.6,30.55,NNE,32,0.0,0.0,86,0.00,,,0.00,VWS V12.07,2013-11-29 04:29:00,
2013-11-28 22:34:00,9.9,6.6,30.55,NNE,33,0.0,0.0,86,0.00,,,0.00,VWS V12.07,2013-11-29 04:34:00,
2013-11-28 22:39:00,9.7,6.4,30.55,NNE,33,0.0,0.0,86,0.00,,,0.00,VWS V12.07,2013-11-29 04:39:00,
2013-11-28 22:44:00,9.5,6.2,30.55,NNE,33,0.0,0.0,86,0.00,,,0.00,VWS V12.07,2013-11-29 04:44:00,
2013-11-28 22:49:00,9.3,6.0,30.55,NNE,33,0.0,0.0,86,0.00,,,0.00,VWS V12.07,2013-11-29 04:49:00,
2013-11-28 22:54:00,9.1,5.8,30.55,NNE,33,0.0,0.0,86,0.00,,,0.00,VWS V12.07,2013-11-29 04:54:00,
2013-11-28 22:59:00,8.9,5.6,30.56,NNE,33,0.0,0.0,86,0.00,,,0.00,VWS V12.07,2013-11-29 04:59:00,
2013-11-28 23:04:00,8.8,5.5,30.56,NNE,33,0.0,0.0,86,0.00,,,0.00,VWS V12.07,2013-11-29 05:04:00,
2013-11-28 23:09:00,8.6,5.3,30.56,NNE,33,0.0,0.0,86,0.00,,,0.00,VWS V12.07,2013-11-29 05:09:00,
2013-11-28 23:14:00,8.5,5.2,30.56,NNE,33,0.0,0.0,86,0.00,,,0.00,VWS V12.07,2013-11-29 05:14:00,
2013-11-28 23:19:00,8.3,5.0,30.56,NNE,33,0.0,0.0,86,0.00,,,0.00,VWS V12.07,2013-11-29 05:19:00,
2013-11-28 23:24:00,8.1,4.8,30.56,NNE,33,0.0,0.0,86,0.00,,,0.00,VWS V12.07,2013-11-29 05:24:00,
2013-11-28 23:29:00,7.9,4.6,30.57,NNE,33,0.0,0.0,86,0.00,,,0.00,VWS V12.07,2013-11-29 05:29:00,
2013-11-28 23:34:00,7.7,4.4,30.57,NNE,32,0.0,0.0,86,0.00,,,0.00,VWS V12.07,2013-11-29 05:34:00,
2013-11-28 23:39:00,7.6,4.3,30.57,NNE,33,0.0,0.0,86,0.00,,,0.00,VWS V12.07,2013-11-29 05:39:00,
2013-11-28 23:44:00,7.6,4.3,30.57,NNE,33,0.0,0.0,86,0.00,,,0.00,VWS V12.07,2013-11-29 05:44:00,
2013-11-28 23:49:00,7.6,4.3,30.57,NNE,33,0.0,0.0,86,0.00,,,0.00,VWS V12.07,2013-11-29 05:49:00,
2013-11-28 23:59:00,7.9,4.8,30.57,NNE,33,0.0,0.0,87,0.00,,,0.00,VWS V12.07,2013-11-29 05:59:00,